Time;durP1;ratioP1;P1;durP2;ratioP2;P2;SDS_P1;SDS_P2;PMS_P1;PMS_P2;Temp;Humidity;BMP_temperature;BMP_pressure;BME280_temperature;BME280_humidity;BME280_pressure;Samples;Min_cycle;Max_cycle;Signal;HPM_P1;HPM_P2
2022/07/13 00:00:38;;;;;;;3.47;3.17;;;;;;;;;;5052979;28;20207;-66
2022/07/13 00:03:10;;;;;;;3.70;3.10;;;;;;;;;;5032583;28;20199;-65
2022/07/13 00:05:40;;;;;;;4.73;3.17;;;;;;;;;;5047615;28;20241;-66
2022/07/13 00:08:12;;;;;;;3.50;3.20;;;;;;;;;;5048400;28;20206;-66
2022/07/13 00:10:43;;;;;;;3.77;3.47;;;;;;;;;;5048747;28;20198;-66
2022/07/13 00:13:10;;;;;;;3.00;2.80;;;;;;;;;;5055688;28;20223;-65
2022/07/13 00:15:53;;;;;;;5.07;3.07;;;;;;;;;;5054729;28;20263;-66
2022/07/13 00:18:24;;;;;;;3.60;3.30;;;;;;;;;;5048133;28;20210;-66
2022/07/13 00:20:55;;;;;;;3.17;2.87;;;;;;;;;;5029269;28;20232;-66
2022/07/13 00:23:26;;;;;;;6.20;3.20;;;;;;;;;;5040508;28;20198;-66
2022/07/13 00:25:59;;;;;;;4.13;3.43;;;;;;;;;;5058117;28;20646;-65
2022/07/13 00:28:29;;;;;;;4.37;3.10;;;;;;;;;;5057508;28;20218;-66
2022/07/13 00:30:58;;;;;;;3.30;3.00;;;;;;;;;;5034747;28;20224;-66
2022/07/13 00:33:26;;;;;;;3.10;2.80;;;;;;;;;;5032142;28;20690;-66
2022/07/13 00:35:57;;;;;;;5.20;3.20;;;;;;;;;;5045566;28;20201;-65
2022/07/13 00:38:29;;;;;;;4.43;3.50;;;;;;;;;;5028802;28;20260;-66
2022/07/13 00:41:01;;;;;;;4.03;3.63;;;;;;;;;;5049581;28;20259;-66
2022/07/13 00:43:33;;;;;;;4.00;3.60;;;;;;;;;;5041788;28;20253;-65
2022/07/13 00:46:06;;;;;;;5.27;4.47;;;;;;;;;;5045199;28;20201;-66
2022/07/13 00:48:58;;;;;;;7.33;3.57;;;;;;;;;;5042145;28;20741;-66
2022/07/13 00:51:37;;;;;;;5.03;3.90;;;;;;;;;;5045696;28;20201;-66
2022/07/13 00:54:06;;;;;;;4.37;3.97;;;;;;;;;;5029879;28;20231;-66
2022/07/13 00:56:36;;;;;;;4.50;4.10;;;;;;;;;;5047006;28;21018;-66
2022/07/13 00:59:08;;;;;;;5.80;3.93;;;;;;;;;;5051021;28;20186;-66
2022/07/13 01:01:41;;;;;;;4.30;3.90;;;;;;;;;;5044485;28;20786;-65
2022/07/13 01:04:17;;;;;;;4.53;3.90;;;;;;;;;;5052503;28;20201;-65
2022/07/13 01:06:48;;;;;;;4.43;3.57;;;;;;;;;;5057182;28;20194;-66
2022/07/13 01:09:18;;;;;;;5.10;3.83;;;;;;;;;;5063716;28;20201;-66
2022/07/13 01:11:48;;;;;;;4.53;4.10;;;;;;;;;;5037370;28;20206;-65
2022/07/13 01:14:20;;;;;;;4.37;3.40;;;;;;;;;;5010081;28;20254;-66
2022/07/13 01:17:03;;;;;;;5.07;3.47;;;;;;;;;;5050736;28;20277;-65
2022/07/13 01:19:35;;;;;;;5.33;3.77;;;;;;;;;;5048572;28;20189;-66
2022/07/13 01:22:04;;;;;;;3.70;3.40;;;;;;;;;;5037005;28;20627;-66
2022/07/13 01:24:35;;;;;;;4.50;4.00;;;;;;;;;;5043052;28;20221;-66
2022/07/13 01:27:07;;;;;;;5.13;3.70;;;;;;;;;;5053437;28;20544;-66
2022/07/13 01:29:37;;;;;;;5.17;4.27;;;;;;;;;;5048396;28;20194;-66
2022/07/13 01:32:08;;;;;;;3.63;3.33;;;;;;;;;;5056947;28;20198;-66
2022/07/13 01:34:39;;;;;;;4.10;3.47;;;;;;;;;;5059030;28;20198;-66
2022/07/13 01:37:11;;;;;;;3.60;3.20;;;;;;;;;;5044048;28;20214;-66
2022/07/13 01:39:45;;;;;;;6.03;3.67;;;;;;;;;;5055852;28;20189;-65
2022/07/13 01:42:14;;;;;;;4.20;3.53;;;;;;;;;;5053662;28;20193;-66
2022/07/13 01:44:47;;;;;;;5.37;3.27;;;;;;;;;;5048200;28;20187;-66
2022/07/13 01:47:14;;;;;;;4.03;3.27;;;;;;;;;;5032148;28;20234;-66
2022/07/13 01:49:44;;;;;;;4.47;3.43;;;;;;;;;;5033015;28;20203;-65
2022/07/13 01:52:12;;;;;;;3.57;3.23;;;;;;;;;;5036128;28;20199;-65
2022/07/13 01:54:43;;;;;;;4.10;3.40;;;;;;;;;;5052213;28;20563;-66
2022/07/13 01:57:18;;;;;;;3.67;3.20;;;;;;;;;;5051776;28;20204;-66
2022/07/13 02:00:02;;;;;;;5.27;3.90;;;;;;;;;;5046140;28;20214;-66
2022/07/13 02:02:29;;;;;;;5.23;3.00;;;;;;;;;;5034318;28;20206;-66
2022/07/13 02:04:59;;;;;;;5.27;3.23;;;;;;;;;;5038483;28;20289;-66
2022/07/13 02:07:32;;;;;;;4.47;3.60;;;;;;;;;;5032492;28;20640;-66
2022/07/13 02:10:03;;;;;;;3.23;2.93;;;;;;;;;;5057208;28;20551;-65
2022/07/13 02:12:38;;;;;;;3.30;3.00;;;;;;;;;;5028959;28;20324;-65
2022/07/13 02:15:06;;;;;;;3.63;2.83;;;;;;;;;;5061976;28;20206;-66
2022/07/13 02:17:33;;;;;;;2.80;2.60;;;;;;;;;;5034861;28;20198;-66
2022/07/13 02:20:02;;;;;;;3.60;3.10;;;;;;;;;;5051226;28;20206;-66
2022/07/13 02:22:42;;;;;;;3.20;2.93;;;;;;;;;;5062937;28;20815;-66
2022/07/13 02:25:22;;;;;;;3.33;3.00;;;;;;;;;;5048129;28;20848;-66
2022/07/13 02:27:55;;;;;;;3.93;3.40;;;;;;;;;;5060981;28;20222;-66
2022/07/13 02:30:25;;;;;;;3.73;2.77;;;;;;;;;;5021458;28;20202;-67
2022/07/13 02:32:57;;;;;;;3.37;2.67;;;;;;;;;;5060350;28;20233;-66
2022/07/13 02:35:30;;;;;;;3.20;2.90;;;;;;;;;;5039435;28;20348;-66
2022/07/13 02:38:03;;;;;;;3.57;2.77;;;;;;;;;;5031404;28;20248;-66
2022/07/13 02:40:33;;;;;;;3.60;3.30;;;;;;;;;;5060445;28;20596;-66
2022/07/13 02:43:04;;;;;;;4.77;3.27;;;;;;;;;;5036345;28;20203;-66
2022/07/13 02:45:32;;;;;;;4.10;3.40;;;;;;;;;;5031927;28;20685;-66
2022/07/13 02:48:03;;;;;;;6.33;3.20;;;;;;;;;;5057236;28;20242;-67
2022/07/13 02:50:39;;;;;;;3.97;3.27;;;;;;;;;;5051321;28;20214;-66
2022/07/13 02:53:12;;;;;;;3.10;2.80;;;;;;;;;;5026482;28;20195;-66
2022/07/13 02:55:43;;;;;;;3.93;3.13;;;;;;;;;;5048904;28;20661;-66
2022/07/13 02:58:14;;;;;;;4.20;3.20;;;;;;;;;;5051932;28;20638;-66
2022/07/13 03:00:48;;;;;;;3.53;3.13;;;;;;;;;;5016485;28;20216;-65
2022/07/13 03:03:18;;;;;;;3.97;3.00;;;;;;;;;;5059678;28;20209;-66
2022/07/13 03:05:50;;;;;;;3.50;2.90;;;;;;;;;;5051098;28;20189;-66
2022/07/13 03:08:21;;;;;;;7.70;2.80;;;;;;;;;;5030751;28;20229;-66
2022/07/13 03:10:55;;;;;;;3.40;3.10;;;;;;;;;;5039337;28;20206;-66
2022/07/13 03:13:46;;;;;;;2.70;2.50;;;;;;;;;;5048150;28;20326;-73
2022/07/13 03:16:17;;;;;;;3.67;2.90;;;;;;;;;;5028549;28;20628;-66
2022/07/13 03:18:50;;;;;;;4.73;2.97;;;;;;;;;;5033886;28;20193;-66
2022/07/13 03:21:24;;;;;;;5.33;3.60;;;;;;;;;;5050822;28;20201;-66
2022/07/13 03:23:55;;;;;;;3.37;3.07;;;;;;;;;;5033760;28;20360;-66
2022/07/13 03:26:29;;;;;;;5.47;2.93;;;;;;;;;;5050764;28;20631;-65
2022/07/13 03:29:20;;;;;;;3.97;3.00;;;;;;;;;;5053149;28;20224;-65
2022/07/13 03:31:53;;;;;;;2.90;2.60;;;;;;;;;;5044026;28;20284;-65
2022/07/13 03:34:23;;;;;;;4.53;3.00;;;;;;;;;;5034627;28;20191;-65
2022/07/13 03:36:53;;;;;;;2.97;2.63;;;;;;;;;;5050142;28;20213;-66
2022/07/13 03:39:25;;;;;;;3.87;3.10;;;;;;;;;;5058008;28;20194;-66
2022/07/13 03:41:58;;;;;;;4.63;3.20;;;;;;;;;;5061274;28;20201;-66
2022/07/13 03:44:30;;;;;;;3.87;2.83;;;;;;;;;;5056169;28;20201;-66
2022/07/13 03:47:00;;;;;;;3.00;2.77;;;;;;;;;;5055738;28;20238;-66
2022/07/13 03:49:30;;;;;;;3.73;2.60;;;;;;;;;;5045967;28;20253;-65
2022/07/13 03:52:02;;;;;;;5.00;2.53;;;;;;;;;;5049481;28;20264;-65
2022/07/13 03:54:41;;;;;;;4.63;2.87;;;;;;;;;;5050625;28;20284;-66
2022/07/13 03:57:24;;;;;;;3.03;2.60;;;;;;;;;;5042904;28;20210;-65
2022/07/13 03:59:57;;;;;;;2.93;2.53;;;;;;;;;;5048485;28;20226;-65
2022/07/13 04:02:32;;;;;;;4.10;3.03;;;;;;;;;;5048679;28;20198;-65
2022/07/13 04:05:03;;;;;;;4.10;2.97;;;;;;;;;;5050075;28;20205;-65
2022/07/13 04:07:42;;;;;;;3.03;2.73;;;;;;;;;;5031804;28;20587;-66
2022/07/13 04:10:11;;;;;;;4.30;2.83;;;;;;;;;;5041720;28;20193;-65
2022/07/13 04:12:55;;;;;;;3.10;2.87;;;;;;;;;;5045558;28;20291;-65
2022/07/13 04:15:32;;;;;;;3.30;2.90;;;;;;;;;;5057057;28;20194;-64
2022/07/13 04:18:03;;;;;;;2.83;2.57;;;;;;;;;;5060196;28;20606;-65
2022/07/13 04:20:35;;;;;;;6.77;2.83;;;;;;;;;;5059373;28;20236;-65
2022/07/13 04:23:05;;;;;;;3.93;3.00;;;;;;;;;;5054696;28;20681;-66
2022/07/13 04:25:39;;;;;;;3.30;3.00;;;;;;;;;;5040918;28;20274;-66
2022/07/13 04:28:11;;;;;;;3.10;2.53;;;;;;;;;;5049370;28;20237;-66
2022/07/13 04:30:42;;;;;;;3.60;3.30;;;;;;;;;;5048808;28;20221;-66
2022/07/13 04:33:10;;;;;;;3.50;3.07;;;;;;;;;;5040589;28;20204;-66
2022/07/13 04:35:43;;;;;;;3.27;2.97;;;;;;;;;;5052390;28;20723;-66
2022/07/13 04:38:14;;;;;;;2.87;2.67;;;;;;;;;;5024832;28;20198;-66
2022/07/13 04:40:43;;;;;;;3.13;2.70;;;;;;;;;;5060069;28;20246;-66
2022/07/13 04:43:16;;;;;;;3.20;2.90;;;;;;;;;;5047042;28;20281;-66
2022/07/13 04:45:46;;;;;;;4.97;3.03;;;;;;;;;;5031861;28;20324;-66
2022/07/13 04:48:18;;;;;;;3.20;2.77;;;;;;;;;;5054705;28;20248;-66
2022/07/13 04:51:02;;;;;;;3.30;3.00;;;;;;;;;;5058797;28;20217;-66
2022/07/13 04:53:35;;;;;;;3.37;2.97;;;;;;;;;;5057588;28;20259;-66
2022/07/13 04:56:04;;;;;;;3.20;2.90;;;;;;;;;;5060055;28;20678;-67
2022/07/13 04:58:36;;;;;;;3.57;3.00;;;;;;;;;;5059640;28;20252;-66
2022/07/13 05:01:07;;;;;;;3.30;3.00;;;;;;;;;;5044416;28;20284;-65
2022/07/13 05:03:52;;;;;;;3.23;3.03;;;;;;;;;;5057035;28;20202;-66
2022/07/13 05:06:23;;;;;;;2.90;2.70;;;;;;;;;;5055415;28;20846;-66
2022/07/13 05:08:59;;;;;;;4.10;3.17;;;;;;;;;;5052489;28;20221;-66
2022/07/13 05:11:28;;;;;;;3.10;2.80;;;;;;;;;;5057309;28;20197;-66
2022/07/13 05:13:58;;;;;;;6.90;3.57;;;;;;;;;;5043181;28;20289;-65
2022/07/13 05:16:30;;;;;;;3.23;2.87;;;;;;;;;;5042960;28;20635;-66
2022/07/13 05:19:19;;;;;;;3.10;2.80;;;;;;;;;;5057464;28;20194;-65
2022/07/13 05:21:52;;;;;;;3.90;2.87;;;;;;;;;;5038777;28;20193;-66
2022/07/13 05:24:43;;;;;;;3.10;2.77;;;;;;;;;;5030362;28;20236;-65
2022/07/13 05:27:18;;;;;;;4.73;3.00;;;;;;;;;;5053383;28;20202;-66
2022/07/13 05:29:51;;;;;;;4.77;2.90;;;;;;;;;;5054086;28;20205;-66
2022/07/13 05:32:24;;;;;;;3.00;2.70;;;;;;;;;;5033040;28;20221;-66
2022/07/13 05:34:55;;;;;;;4.47;2.70;;;;;;;;;;5043712;28;20209;-66
2022/07/13 05:37:25;;;;;;;3.37;2.63;;;;;;;;;;5058731;28;20206;-66
2022/07/13 05:39:55;;;;;;;4.57;3.20;;;;;;;;;;5067148;28;20217;-66
2022/07/13 05:42:30;;;;;;;4.03;2.70;;;;;;;;;;5046567;28;20280;-66
2022/07/13 05:45:04;;;;;;;4.13;2.60;;;;;;;;;;5056400;28;20201;-66
2022/07/13 05:47:35;;;;;;;5.30;2.90;;;;;;;;;;5042831;28;20242;-65
2022/07/13 05:50:18;;;;;;;7.03;3.17;;;;;;;;;;5054140;28;20632;-66
2022/07/13 05:52:50;;;;;;;4.20;2.70;;;;;;;;;;5051800;28;20187;-66
2022/07/13 05:55:22;;;;;;;2.90;2.70;;;;;;;;;;5046637;28;20198;-66
2022/07/13 05:57:53;;;;;;;20.27;6.73;;;;;;;;;;5048968;28;20616;-66
2022/07/13 06:00:27;;;;;;;19.70;5.90;;;;;;;;;;5049565;28;20221;-65
2022/07/13 06:02:55;;;;;;;35.03;10.07;;;;;;;;;;5055599;28;20202;-66
2022/07/13 06:05:29;;;;;;;53.87;16.10;;;;;;;;;;5048889;28;20198;-66
2022/07/13 06:08:01;;;;;;;55.77;16.90;;;;;;;;;;5030673;28;20205;-66
2022/07/13 06:10:32;;;;;;;35.53;12.80;;;;;;;;;;5055952;28;20190;-65
2022/07/13 06:13:02;;;;;;;36.40;13.70;;;;;;;;;;5032554;28;20214;-65
2022/07/13 06:15:34;;;;;;;41.30;14.33;;;;;;;;;;5047126;28;20202;-65
2022/07/13 06:18:06;;;;;;;35.73;12.77;;;;;;;;;;5049253;28;20202;-65
2022/07/13 06:20:54;;;;;;;35.97;12.77;;;;;;;;;;5018074;28;20190;-67
2022/07/13 06:23:30;;;;;;;34.33;11.10;;;;;;;;;;5030462;28;20793;-66
2022/07/13 06:26:02;;;;;;;25.87;9.40;;;;;;;;;;5045223;28;20750;-65
2022/07/13 06:28:34;;;;;;;25.17;10.17;;;;;;;;;;5062134;28;20591;-65
2022/07/13 06:31:09;;;;;;;19.50;7.57;;;;;;;;;;5041871;28;20266;-65
2022/07/13 06:33:51;;;;;;;12.17;6.97;;;;;;;;;;5029362;28;20186;-65
2022/07/13 06:36:22;;;;;;;20.40;7.43;;;;;;;;;;5036276;28;20219;-65
2022/07/13 06:38:52;;;;;;;12.33;6.07;;;;;;;;;;5033211;28;20229;-64
2022/07/13 06:41:22;;;;;;;10.90;5.40;;;;;;;;;;5051323;28;20289;-64
2022/07/13 06:44:00;;;;;;;8.20;4.93;;;;;;;;;;5048906;28;20250;-64
2022/07/13 06:46:33;;;;;;;12.03;4.80;;;;;;;;;;5030210;28;20193;-64
2022/07/13 06:49:01;;;;;;;7.67;4.93;;;;;;;;;;5050374;28;20295;-64
2022/07/13 06:51:43;;;;;;;6.17;4.17;;;;;;;;;;5051707;28;20221;-64
2022/07/13 06:54:16;;;;;;;5.27;4.17;;;;;;;;;;5053151;28;20183;-64
2022/07/13 06:56:47;;;;;;;7.93;4.20;;;;;;;;;;5047786;28;20305;-64
2022/07/13 06:59:18;;;;;;;6.73;3.53;;;;;;;;;;5049088;28;20206;-64
2022/07/13 07:01:59;;;;;;;7.07;3.93;;;;;;;;;;5046073;28;20285;-64
2022/07/13 07:04:35;;;;;;;5.43;3.60;;;;;;;;;;5047813;28;20281;-65
2022/07/13 07:07:13;;;;;;;6.17;3.70;;;;;;;;;;5031027;28;20209;-65
2022/07/13 07:09:48;;;;;;;4.93;3.50;;;;;;;;;;5046266;28;20213;-65
2022/07/13 07:12:21;;;;;;;6.20;3.47;;;;;;;;;;5024065;28;21814;-64
2022/07/13 07:14:52;;;;;;;6.50;3.73;;;;;;;;;;5039618;28;20238;-64
2022/07/13 07:17:22;;;;;;;4.33;3.13;;;;;;;;;;5044262;28;20207;-65
2022/07/13 07:19:58;;;;;;;10.10;3.97;;;;;;;;;;5045171;28;20202;-64
2022/07/13 07:22:26;;;;;;;3.90;3.40;;;;;;;;;;5040897;28;20671;-64
2022/07/13 07:25:08;;;;;;;4.87;3.33;;;;;;;;;;5041256;28;20224;-65
2022/07/13 07:27:40;;;;;;;4.33;3.40;;;;;;;;;;5034385;28;20935;-66
2022/07/13 07:30:12;;;;;;;3.77;3.23;;;;;;;;;;5031229;28;20610;-65
2022/07/13 07:32:48;;;;;;;4.47;2.97;;;;;;;;;;5046170;28;20665;-65
2022/07/13 07:35:20;;;;;;;4.83;3.00;;;;;;;;;;5046530;28;20644;-63
2022/07/13 07:37:49;;;;;;;5.33;3.50;;;;;;;;;;5024248;28;20210;-64
2022/07/13 07:40:20;;;;;;;6.47;3.47;;;;;;;;;;5035794;28;20214;-64
2022/07/13 07:42:53;;;;;;;8.63;3.10;;;;;;;;;;5045091;28;20946;-65
2022/07/13 07:45:26;;;;;;;6.33;3.03;;;;;;;;;;5050790;28;20202;-64
2022/07/13 07:47:54;;;;;;;5.53;3.00;;;;;;;;;;5023123;28;20316;-64
2022/07/13 07:50:23;;;;;;;5.87;2.80;;;;;;;;;;5023024;28;20378;-66
2022/07/13 07:52:55;;;;;;;6.53;3.20;;;;;;;;;;5021197;28;20198;-64
2022/07/13 07:55:23;;;;;;;3.87;3.17;;;;;;;;;;5032746;28;20191;-64
2022/07/13 07:57:53;;;;;;;4.23;2.80;;;;;;;;;;5025958;28;20196;-65
2022/07/13 08:00:27;;;;;;;5.40;3.07;;;;;;;;;;5023237;28;20708;-68
2022/07/13 08:02:57;;;;;;;4.53;3.03;;;;;;;;;;5022636;28;20282;-68
2022/07/13 08:05:27;;;;;;;4.63;2.80;;;;;;;;;;5024524;28;20538;-69
2022/07/13 08:07:57;;;;;;;4.60;3.07;;;;;;;;;;5029723;28;20245;-66
2022/07/13 08:10:28;;;;;;;5.63;2.87;;;;;;;;;;5026727;28;20242;-65
2022/07/13 08:13:03;;;;;;;3.13;2.70;;;;;;;;;;5028367;28;20207;-68
2022/07/13 08:15:34;;;;;;;3.77;2.50;;;;;;;;;;5032494;28;20190;-66
2022/07/13 08:18:05;;;;;;;3.87;2.83;;;;;;;;;;5027046;28;20199;-67
2022/07/13 08:20:36;;;;;;;5.77;2.60;;;;;;;;;;5026178;28;20629;-67
2022/07/13 08:23:51;;;;;;;2.63;2.43;;;;;;;;;;5026550;28;20199;-66
2022/07/13 08:25:59;;;;;;;3.57;2.67;;;;;;;;;;5027165;28;20230;-68
2022/07/13 08:28:28;;;;;;;4.77;2.70;;;;;;;;;;5025636;28;20203;-67
2022/07/13 08:30:59;;;;;;;3.47;2.60;;;;;;;;;;5023953;28;20232;-64
2022/07/13 08:39:09;;;;;;;3.83;2.50;;;;;;;;;;5024728;28;20650;-67
2022/07/13 08:41:46;;;;;;;3.87;2.80;;;;;;;;;;5025487;28;20612;-66
2022/07/13 08:44:19;;;;;;;3.27;2.80;;;;;;;;;;5011758;28;20691;-65
2022/07/13 08:46:47;;;;;;;6.13;3.17;;;;;;;;;;5026945;28;20297;-69
2022/07/13 08:49:28;;;;;;;5.30;3.00;;;;;;;;;;5038449;28;20210;-70
2022/07/13 08:52:00;;;;;;;3.33;2.87;;;;;;;;;;5050018;28;20194;-70
2022/07/13 08:54:34;;;;;;;4.97;2.80;;;;;;;;;;5032405;28;20519;-66
2022/07/13 08:57:04;;;;;;;6.00;3.17;;;;;;;;;;5051043;28;20202;-67
2022/07/13 08:59:35;;;;;;;4.50;2.53;;;;;;;;;;5041159;28;20186;-69
2022/07/13 09:02:06;;;;;;;4.33;2.70;;;;;;;;;;5044357;28;20210;-67
2022/07/13 09:04:39;;;;;;;3.40;2.73;;;;;;;;;;5044661;28;20267;-67
2022/07/13 09:07:17;;;;;;;5.60;2.83;;;;;;;;;;5045879;28;20212;-69
2022/07/13 09:09:47;;;;;;;3.77;2.63;;;;;;;;;;5044080;28;20287;-67
2022/07/13 09:12:37;;;;;;;2.90;2.60;;;;;;;;;;5039079;28;20655;-66
2022/07/13 09:15:08;;;;;;;3.93;2.73;;;;;;;;;;5054610;28;20284;-67
2022/07/13 09:17:48;;;;;;;5.10;2.93;;;;;;;;;;5044525;28;20218;-68
2022/07/13 09:20:23;;;;;;;3.20;2.47;;;;;;;;;;5048146;28;20271;-67
2022/07/13 09:23:05;;;;;;;3.17;2.80;;;;;;;;;;5045703;28;20713;-65
2022/07/13 09:25:39;;;;;;;6.20;3.40;;;;;;;;;;5050780;28;20283;-64
2022/07/13 09:28:16;;;;;;;5.10;3.13;;;;;;;;;;5032320;28;20209;-64
2022/07/13 09:31:04;;;;;;;5.50;3.10;;;;;;;;;;5049074;28;20340;-64
2022/07/13 09:33:36;;;;;;;3.93;3.17;;;;;;;;;;5053015;28;20256;-64
2022/07/13 09:36:24;;;;;;;4.80;2.83;;;;;;;;;;5025726;28;20233;-66
2022/07/13 09:39:09;;;;;;;4.53;2.60;;;;;;;;;;5032075;28;20191;-65
2022/07/13 09:41:51;;;;;;;6.20;3.00;;;;;;;;;;5042697;28;20202;-64
2022/07/13 09:47:24;;;;;;;3.90;2.80;;;;;;;;;;5043179;28;20312;-66
2022/07/13 09:49:55;;;;;;;7.27;4.43;;;;;;;;;;5030323;28;20241;-66
2022/07/13 09:52:34;;;;;;;20.67;7.90;;;;;;;;;;5047770;28;20193;-66
2022/07/13 09:55:11;;;;;;;20.63;9.10;;;;;;;;;;5042381;28;20190;-65
2022/07/13 09:57:48;;;;;;;33.23;14.07;;;;;;;;;;5022982;28;20202;-63
2022/07/13 10:00:32;;;;;;;28.77;11.17;;;;;;;;;;5042522;28;20294;-63
2022/07/13 10:03:04;;;;;;;25.53;11.30;;;;;;;;;;5036568;28;20198;-63
2022/07/13 10:05:40;;;;;;;25.53;9.40;;;;;;;;;;5053779;28;20193;-63
2022/07/13 10:08:10;;;;;;;20.70;8.93;;;;;;;;;;5028871;28;20200;-63
2022/07/13 10:10:41;;;;;;;17.03;7.77;;;;;;;;;;5056394;28;20285;-63
2022/07/13 10:13:14;;;;;;;14.20;7.30;;;;;;;;;;5027552;28;20207;-63
2022/07/13 10:15:47;;;;;;;12.77;6.30;;;;;;;;;;5032570;28;20199;-61
2022/07/13 10:18:21;;;;;;;13.93;5.90;;;;;;;;;;5031226;28;20186;-61
2022/07/13 10:21:05;;;;;;;13.67;6.53;;;;;;;;;;5057566;28;20206;-62
2022/07/13 10:23:39;;;;;;;11.37;5.80;;;;;;;;;;5027999;28;20190;-62
2022/07/13 10:26:28;;;;;;;11.60;5.30;;;;;;;;;;5035057;28;20225;-63
2022/07/13 10:29:11;;;;;;;11.60;4.70;;;;;;;;;;5038649;28;20274;-63
2022/07/13 10:31:40;;;;;;;9.13;4.87;;;;;;;;;;5024748;28;20531;-62
2022/07/13 10:34:15;;;;;;;7.83;4.70;;;;;;;;;;5061970;28;20197;-62
2022/07/13 10:36:51;;;;;;;6.63;4.30;;;;;;;;;;5059780;28;20232;-64
2022/07/13 10:39:25;;;;;;;7.00;4.07;;;;;;;;;;5048263;28;20245;-64
2022/07/13 10:42:07;;;;;;;8.73;4.43;;;;;;;;;;5024960;28;20197;-64
2022/07/13 10:44:45;;;;;;;6.17;4.10;;;;;;;;;;5053479;28;20199;-64
2022/07/13 10:47:20;;;;;;;5.87;3.80;;;;;;;;;;5044151;28;20241;-64
2022/07/13 10:49:52;;;;;;;7.47;3.90;;;;;;;;;;5053056;28;20224;-64
2022/07/13 10:52:27;;;;;;;8.33;4.03;;;;;;;;;;5066749;28;20206;-63
2022/07/13 10:55:07;;;;;;;6.17;4.20;;;;;;;;;;5046827;28;20257;-61
2022/07/13 10:57:46;;;;;;;6.57;3.80;;;;;;;;;;5053753;28;20292;-62
2022/07/13 11:00:44;;;;;;;6.53;3.83;;;;;;;;;;5053863;28;20205;-62
2022/07/13 11:03:35;;;;;;;6.33;3.70;;;;;;;;;;5042995;28;20194;-62
2022/07/13 11:06:12;;;;;;;5.67;3.53;;;;;;;;;;5054952;28;20218;-62
2022/07/13 11:08:42;;;;;;;5.23;3.37;;;;;;;;;;5050139;28;20220;-62
2022/07/13 11:11:17;;;;;;;5.17;3.00;;;;;;;;;;5037112;28;20241;-63
2022/07/13 11:13:46;;;;;;;5.20;3.50;;;;;;;;;;5044053;28;20202;-63
2022/07/13 11:16:36;;;;;;;6.53;3.43;;;;;;;;;;5034464;28;20198;-62
2022/07/13 11:19:11;;;;;;;4.23;3.20;;;;;;;;;;5050630;28;20198;-62
2022/07/13 11:21:58;;;;;;;3.97;3.17;;;;;;;;;;5046119;28;20647;-63
2022/07/13 11:27:16;;;;;;;4.10;3.30;;;;;;;;;;5049515;28;20202;-61
2022/07/13 11:29:56;;;;;;;6.33;3.63;;;;;;;;;;5049340;28;20349;-61
2022/07/13 11:32:30;;;;;;;4.07;2.80;;;;;;;;;;5038824;28;20194;-63
2022/07/13 11:35:10;;;;;;;4.90;3.07;;;;;;;;;;5027420;28;20194;-63
2022/07/13 11:37:53;;;;;;;3.43;2.87;;;;;;;;;;5041141;28;20793;-63
2022/07/13 11:40:35;;;;;;;4.33;2.87;;;;;;;;;;5029535;28;20240;-61
2022/07/13 11:43:08;;;;;;;3.53;2.93;;;;;;;;;;5053001;28;20271;-61
2022/07/13 11:45:40;;;;;;;3.37;2.40;;;;;;;;;;5050102;28;20263;-63
2022/07/13 11:48:12;;;;;;;3.47;2.67;;;;;;;;;;5048894;28;20239;-64
2022/07/13 11:50:58;;;;;;;4.20;2.77;;;;;;;;;;5049605;28;20210;-64
2022/07/13 11:53:30;;;;;;;4.07;2.67;;;;;;;;;;5055110;28;20206;-63
2022/07/13 11:56:06;;;;;;;3.07;2.50;;;;;;;;;;5036728;28;20288;-63
2022/07/13 11:58:39;;;;;;;3.60;2.40;;;;;;;;;;5048359;28;20182;-62
2022/07/13 12:01:18;;;;;;;2.87;2.53;;;;;;;;;;5032226;28;20463;-62
2022/07/13 12:03:51;;;;;;;3.17;2.60;;;;;;;;;;5051642;28;20603;-62
2022/07/13 12:06:28;;;;;;;2.77;2.20;;;;;;;;;;5037697;28;20281;-63
2022/07/13 12:09:18;;;;;;;2.87;2.63;;;;;;;;;;5033158;28;20194;-63
2022/07/13 12:11:56;;;;;;;3.90;2.20;;;;;;;;;;5051312;28;20332;-63
2022/07/13 12:14:27;;;;;;;3.50;2.23;;;;;;;;;;5055572;28;20197;-63
2022/07/13 12:16:58;;;;;;;2.90;2.20;;;;;;;;;;5031515;28;20604;-63
2022/07/13 12:19:31;;;;;;;3.93;2.63;;;;;;;;;;5044437;28;20646;-63
2022/07/13 12:22:00;;;;;;;3.77;2.60;;;;;;;;;;5026889;28;20288;-63
2022/07/13 12:24:33;;;;;;;3.80;2.17;;;;;;;;;;5039655;28;20221;-63
2022/07/13 12:27:05;;;;;;;3.20;2.47;;;;;;;;;;5033989;28;20623;-62
2022/07/13 12:29:37;;;;;;;2.50;2.30;;;;;;;;;;5046860;28;20189;-62
2022/07/13 12:32:09;;;;;;;2.80;2.13;;;;;;;;;;5014615;28;20649;-62
2022/07/13 12:34:53;;;;;;;2.80;2.00;;;;;;;;;;5043708;28;20203;-62
2022/07/13 12:37:40;;;;;;;2.93;2.03;;;;;;;;;;5049964;28;20201;-63
2022/07/13 12:40:39;;;;;;;2.30;2.00;;;;;;;;;;5047667;28;20205;-63
2022/07/13 12:43:20;;;;;;;3.00;2.47;;;;;;;;;;5054343;28;20208;-63
2022/07/13 12:45:52;;;;;;;2.33;2.03;;;;;;;;;;5056267;28;20216;-61
2022/07/13 12:48:34;;;;;;;2.97;2.10;;;;;;;;;;5009601;28;20226;-61
2022/07/13 12:51:11;;;;;;;2.47;2.27;;;;;;;;;;5036027;28;20214;-63
2022/07/13 12:53:54;;;;;;;2.20;1.97;;;;;;;;;;5026952;28;20207;-62
2022/07/13 12:56:26;;;;;;;2.50;2.23;;;;;;;;;;5033223;28;20199;-62
2022/07/13 12:58:59;;;;;;;2.73;2.20;;;;;;;;;;5028813;28;20702;-63
2022/07/13 13:01:36;;;;;;;2.13;2.03;;;;;;;;;;5030938;28;20195;-61
2022/07/13 13:04:11;;;;;;;2.37;2.00;;;;;;;;;;5019930;28;20636;-61
2022/07/13 13:06:44;;;;;;;2.30;1.87;;;;;;;;;;5038018;28;20195;-61
2022/07/13 13:09:15;;;;;;;3.03;2.27;;;;;;;;;;5010145;28;20190;-61
2022/07/13 13:11:46;;;;;;;3.10;1.90;;;;;;;;;;5028914;28;20246;-61
2022/07/13 13:14:17;;;;;;;3.10;1.87;;;;;;;;;;5029821;28;20194;-62
2022/07/13 13:16:51;;;;;;;2.70;2.13;;;;;;;;;;5029175;28;20199;-62
2022/07/13 13:19:30;;;;;;;2.63;2.10;;;;;;;;;;5034941;28;20213;-61
2022/07/13 13:22:24;;;;;;;2.00;1.80;;;;;;;;;;5033709;28;20190;-64
2022/07/13 13:24:52;;;;;;;2.20;2.00;;;;;;;;;;5028643;28;20230;-64
2022/07/13 13:27:22;;;;;;;2.17;1.60;;;;;;;;;;5025448;28;20195;-61
2022/07/13 13:33:02;;;;;;;2.40;2.00;;;;;;;;;;5034016;28;20198;-63
2022/07/13 13:35:35;;;;;;;2.03;1.80;;;;;;;;;;5034495;28;20198;-64
2022/07/13 13:38:04;;;;;;;2.07;1.73;;;;;;;;;;5031471;28;20202;-64
2022/07/13 13:40:39;;;;;;;2.00;1.80;;;;;;;;;;5029246;28;20288;-61
2022/07/13 13:43:11;;;;;;;3.27;1.90;;;;;;;;;;5033508;28;20210;-61
2022/07/13 13:45:46;;;;;;;2.20;1.97;;;;;;;;;;5029254;28;20210;-64
2022/07/13 13:48:14;;;;;;;2.37;2.10;;;;;;;;;;5055661;28;20241;-64
2022/07/13 13:50:46;;;;;;;2.67;1.90;;;;;;;;;;5049581;28;20213;-63
2022/07/13 13:53:22;;;;;;;3.03;2.10;;;;;;;;;;5049690;28;20187;-62
2022/07/13 13:55:56;;;;;;;1.93;1.83;;;;;;;;;;5057586;28;20191;-64
2022/07/13 13:58:30;;;;;;;3.83;2.10;;;;;;;;;;5053415;28;20194;-63
2022/07/13 14:01:00;;;;;;;2.20;1.97;;;;;;;;;;5058358;28;20283;-62
2022/07/13 14:03:33;;;;;;;1.97;1.87;;;;;;;;;;5051197;28;20327;-62
2022/07/13 14:06:05;;;;;;;2.37;1.97;;;;;;;;;;5054849;28;20507;-63
2022/07/13 14:08:43;;;;;;;1.97;1.70;;;;;;;;;;5028023;28;20206;-63
2022/07/13 14:11:14;;;;;;;2.30;1.77;;;;;;;;;;5055633;28;20213;-63
2022/07/13 14:14:02;;;;;;;2.33;1.67;;;;;;;;;;5047475;28;20225;-63
2022/07/13 14:16:36;;;;;;;1.70;1.60;;;;;;;;;;5050608;28;20207;-64
2022/07/13 14:19:08;;;;;;;2.43;1.70;;;;;;;;;;5052687;28;20215;-64
2022/07/13 14:21:40;;;;;;;2.27;1.80;;;;;;;;;;5030841;28;20230;-63
2022/07/13 14:24:10;;;;;;;1.77;1.67;;;;;;;;;;5031250;28;20222;-63
2022/07/13 14:26:54;;;;;;;1.70;1.60;;;;;;;;;;5051195;28;20198;-63
2022/07/13 14:29:31;;;;;;;2.00;1.77;;;;;;;;;;5045480;28;20267;-63
2022/07/13 14:32:02;;;;;;;2.23;2.00;;;;;;;;;;5034632;28;20221;-63
2022/07/13 14:34:54;;;;;;;2.20;1.77;;;;;;;;;;5057235;28;20658;-63
2022/07/13 14:37:32;;;;;;;2.23;1.50;;;;;;;;;;5052821;28;20207;-63
2022/07/13 14:40:05;;;;;;;1.87;1.60;;;;;;;;;;5042990;28;20288;-61
2022/07/13 14:42:38;;;;;;;2.50;1.77;;;;;;;;;;5057322;28;20256;-64
2022/07/13 14:45:09;;;;;;;2.20;2.00;;;;;;;;;;5060845;28;20230;-62
2022/07/13 14:47:39;;;;;;;2.03;1.70;;;;;;;;;;5050028;28;20387;-62
2022/07/13 14:50:32;;;;;;;2.50;1.60;;;;;;;;;;5039155;28;20875;-60
2022/07/13 14:53:22;;;;;;;3.17;1.67;;;;;;;;;;5049887;28;20568;-63
2022/07/13 14:55:52;;;;;;;1.63;1.53;;;;;;;;;;5054952;28;20227;-63
2022/07/13 14:58:24;;;;;;;2.30;1.80;;;;;;;;;;5044452;28;20191;-63
2022/07/13 15:00:55;;;;;;;1.93;1.53;;;;;;;;;;5044988;28;20221;-63
2022/07/13 15:03:27;;;;;;;3.07;1.90;;;;;;;;;;5053296;28;20299;-62
2022/07/13 15:05:59;;;;;;;1.60;1.50;;;;;;;;;;5060740;28;20236;-62
2022/07/13 15:08:31;;;;;;;1.67;1.50;;;;;;;;;;5051321;28;20194;-63
2022/07/13 15:11:23;;;;;;;1.67;1.57;;;;;;;;;;5024846;28;20222;-62
2022/07/13 15:13:57;;;;;;;2.17;1.60;;;;;;;;;;5044620;28;20268;-61
2022/07/13 15:16:28;;;;;;;1.80;1.70;;;;;;;;;;5051375;28;20617;-62
2022/07/13 15:19:01;;;;;;;1.70;1.60;;;;;;;;;;5022563;28;20205;-61
2022/07/13 15:21:34;;;;;;;1.67;1.53;;;;;;;;;;5019883;28;20190;-62
2022/07/13 15:24:10;;;;;;;1.50;1.40;;;;;;;;;;5048000;28;20211;-62
2022/07/13 15:26:42;;;;;;;2.87;1.67;;;;;;;;;;5051165;28;20675;-63
2022/07/13 15:29:16;;;;;;;1.57;1.47;;;;;;;;;;5061162;28;20201;-63
2022/07/13 15:31:47;;;;;;;1.83;1.60;;;;;;;;;;5060683;28;20203;-63
2022/07/13 15:34:18;;;;;;;1.93;1.20;;;;;;;;;;5056784;28;20274;-63
2022/07/13 15:36:51;;;;;;;1.53;1.43;;;;;;;;;;5048508;28;20219;-62